Time;durP1;ratioP1;P1;durP2;ratioP2;P2;SDS_P1;SDS_P2;PMS_P1;PMS_P2;Temp;Humidity;BMP_temperature;BMP_pressure;BME280_temperature;BME280_humidity;BME280_pressure;Samples;Min_cycle;Max_cycle;Signal;HPM_P1;HPM_P2
2021/12/02 00:01:17;;;;;;;6.95;1.15;;;4.10;99.90;;;;;;4916240;29;20063;-82
2021/12/02 00:03:44;;;;;;;10.20;1.15;;;4.20;99.90;;;;;;4946894;29;20051;-82
2021/12/02 00:06:16;;;;;;;8.18;1.52;;;4.30;99.90;;;;;;4932749;29;20047;-83
2021/12/02 00:08:43;;;;;;;7.68;2.00;;;4.60;99.90;;;;;;4916556;29;20134;-82
2021/12/02 00:11:09;;;;;;;10.20;1.25;;;4.70;99.90;;;;;;4932705;29;20055;-82
2021/12/02 00:21:19;;;;;;;13.73;1.52;;;3.80;99.90;;;;;;4932862;29;20055;-82
2021/12/02 00:24:07;;;;;;;9.38;1.17;;;3.60;99.90;;;;;;4931314;29;20094;-83
2021/12/02 00:26:36;;;;;;;10.68;1.35;;;3.60;99.90;;;;;;4930683;29;20047;-82
2021/12/02 00:29:05;;;;;;;8.25;1.50;;;3.50;99.90;;;;;;4931805;29;20047;-83
2021/12/02 00:31:34;;;;;;;12.02;1.40;;;3.50;99.90;;;;;;4932373;29;20698;-82
2021/12/02 00:34:10;;;;;;;12.75;1.40;;;4.70;99.90;;;;;;4931510;29;20087;-82
2021/12/02 00:36:38;;;;;;;9.98;1.10;;;3.50;99.90;;;;;;4931591;29;20058;-82
2021/12/02 00:39:10;;;;;;;8.38;1.30;;;4.50;99.90;;;;;;4931775;29;20055;-82
2021/12/02 00:41:37;;;;;;;16.85;1.63;;;3.00;99.90;;;;;;4931907;29;20039;-82
2021/12/02 00:44:03;;;;;;;16.65;1.98;;;3.00;99.90;;;;;;4915766;29;20051;-82
2021/12/02 00:46:32;;;;;;;13.32;1.50;;;3.50;99.90;;;;;;4932089;29;20143;-82
2021/12/02 00:49:03;;;;;;;7.22;1.25;;;4.50;99.90;;;;;;4915744;29;20079;-82
2021/12/02 00:51:34;;;;;;;13.77;1.65;;;3.50;99.90;;;;;;4900004;29;20071;-82
2021/12/02 00:54:03;;;;;;;8.25;1.20;;;3.50;99.90;;;;;;4915865;29;20510;-82
2021/12/02 00:56:29;;;;;;;14.88;2.10;;;3.60;99.90;;;;;;4931322;29;20046;-83
2021/12/02 00:58:55;;;;;;;11.75;1.58;;;3.50;99.90;;;;;;4931075;29;20062;-82
2021/12/02 01:01:24;;;;;;;16.60;1.83;;;3.70;99.90;;;;;;4932093;29;20135;-82
2021/12/02 01:03:55;;;;;;;9.35;1.33;;;3.60;99.90;;;;;;4929808;29;20098;-82
2021/12/02 01:06:21;;;;;;;11.50;1.50;;;3.80;99.90;;;;;;4931425;29;20086;-82
2021/12/02 01:08:49;;;;;;;13.38;1.80;;;3.60;99.90;;;;;;4931152;29;20535;-82
2021/12/02 01:11:17;;;;;;;11.05;1.63;;;3.50;99.90;;;;;;4930854;29;20051;-82
2021/12/02 01:13:42;;;;;;;10.65;1.77;;;3.60;99.90;;;;;;4930961;29;20554;-82
2021/12/02 01:16:08;;;;;;;16.20;1.58;;;3.50;99.90;;;;;;4931620;29;20051;-82
2021/12/02 01:18:34;;;;;;;10.65;1.80;;;4.50;99.90;;;;;;4929187;29;20079;-82
2021/12/02 01:21:02;;;;;;;9.50;1.23;;;3.60;99.90;;;;;;4931372;29;20059;-82
2021/12/02 01:23:30;;;;;;;11.02;1.48;;;3.60;99.90;;;;;;4930525;29;20089;-83
2021/12/02 01:26:04;;;;;;;6.00;0.70;;;3.60;99.90;;;;;;4946975;29;20036;-82
2021/12/02 01:28:31;;;;;;;9.10;0.88;;;4.10;99.90;;;;;;4930495;29;20058;-82
2021/12/02 01:30:57;;;;;;;10.50;1.15;;;3.70;99.90;;;;;;4947552;29;20039;-82
2021/12/02 01:33:26;;;;;;;12.70;1.27;;;4.60;99.90;;;;;;4929454;29;20138;-82
2021/12/02 01:35:56;;;;;;;9.07;1.05;;;3.80;99.90;;;;;;4931134;29;20487;-82
2021/12/02 01:38:24;;;;;;;7.03;1.08;;;4.10;99.90;;;;;;4930520;29;20047;-82
2021/12/02 01:40:51;;;;;;;4.30;0.68;;;4.60;99.90;;;;;;4946106;29;20492;-82
2021/12/02 01:43:20;;;;;;;8.07;1.33;;;3.80;99.90;;;;;;4930665;29;20095;-82
2021/12/02 01:45:45;;;;;;;4.55;0.65;;;4.30;99.90;;;;;;4915377;29;20130;-82
2021/12/02 01:48:19;;;;;;;6.15;0.80;;;4.70;99.90;;;;;;4913790;29;20162;-82
2021/12/02 01:51:00;;;;;;;11.25;0.93;;;3.70;99.90;;;;;;4930960;29;20055;-82
2021/12/02 01:53:33;;;;;;;9.52;0.70;;;3.50;99.90;;;;;;4930582;29;20047;-82
2021/12/02 01:56:10;;;;;;;;;;;4.50;99.90;;;;;;4931256;29;20095;-82
2021/12/02 01:58:42;;;;;;;8.43;0.95;;;3.40;99.90;;;;;;4930114;29;20438;-82
2021/12/02 02:01:15;;;;;;;5.43;0.90;;;4.40;99.90;;;;;;4914634;29;20077;-83
2021/12/02 02:03:42;;;;;;;5.15;1.00;;;3.70;99.90;;;;;;4929268;29;20052;-82
2021/12/02 02:06:09;;;;;;;6.13;0.88;;;3.30;99.90;;;;;;4914122;29;20460;-82
2021/12/02 02:08:42;;;;;;;6.68;0.93;;;3.30;99.90;;;;;;4928792;29;20059;-82
2021/12/02 02:11:08;;;;;;;8.35;1.08;;;3.20;99.90;;;;;;4931000;29;20047;-82
2021/12/02 02:13:35;;;;;;;2.65;0.50;;;3.80;99.90;;;;;;4929380;29;20135;-83
2021/12/02 02:16:03;;;;;;;6.78;1.17;;;3.10;99.90;;;;;;4929764;29;20059;-82
2021/12/02 02:18:29;;;;;;;5.80;1.00;;;3.00;99.90;;;;;;4928653;29;20039;-82
2021/12/02 02:21:02;;;;;;;8.65;0.80;;;2.90;99.90;;;;;;4930468;29;20515;-82
2021/12/02 02:23:32;;;;;;;7.05;0.88;;;2.90;99.90;;;;;;4928905;29;20048;-82
2021/12/02 02:25:58;;;;;;;14.07;1.65;;;2.90;99.90;;;;;;4914774;29;20114;-82
2021/12/02 02:28:24;;;;;;;9.63;1.40;;;3.40;99.90;;;;;;4929677;29;20057;-82
2021/12/02 02:30:50;;;;;;;12.02;1.17;;;2.80;99.90;;;;;;4929605;29;20053;-82
2021/12/02 02:33:20;;;;;;;8.05;1.20;;;2.80;99.90;;;;;;4929251;29;20063;-82
2021/12/02 02:35:48;;;;;;;10.52;2.40;;;2.80;99.90;;;;;;4929315;29;20043;-82
2021/12/02 02:38:14;;;;;;;7.47;1.10;;;3.90;99.90;;;;;;4914276;29;20319;-82
2021/12/02 02:40:46;;;;;;;9.60;1.60;;;3.50;99.90;;;;;;4930193;29;20044;-82
2021/12/02 02:43:24;;;;;;;9.75;1.60;;;2.90;99.90;;;;;;4928766;29;20083;-82
2021/12/02 02:45:50;;;;;;;7.43;1.25;;;3.00;99.90;;;;;;4929887;29;20048;-82
2021/12/02 02:48:16;;;;;;;9.10;1.20;;;3.00;99.90;;;;;;4928732;29;20052;-82
2021/12/02 02:50:42;;;;;;;13.77;1.58;;;3.10;99.90;;;;;;4929324;29;20056;-82
2021/12/02 02:53:15;;;;;;;14.85;1.58;;;3.70;99.90;;;;;;4943244;29;20094;-82
2021/12/02 02:55:43;;;;;;;9.68;1.00;;;3.10;99.90;;;;;;4913809;29;20404;-82
2021/12/02 03:01:05;;;;;;;11.85;1.20;;;4.20;99.90;;;;;;4930162;29;20048;-82
2021/12/02 03:03:47;;;;;;;8.32;1.17;;;4.00;99.90;;;;;;4912564;29;20091;-82
2021/12/02 03:06:30;;;;;;;11.25;1.42;;;3.20;99.90;;;;;;4913770;29;20503;-83
2021/12/02 03:09:06;;;;;;;10.43;1.30;;;3.20;99.90;;;;;;4913731;29;20476;-83
2021/12/02 03:11:47;;;;;;;12.50;1.67;;;3.20;99.90;;;;;;4913374;29;20161;-82
2021/12/02 03:14:19;;;;;;;6.80;1.00;;;3.20;99.90;;;;;;4913703;29;20420;-82
2021/12/02 03:16:45;;;;;;;5.45;0.90;;;4.10;99.90;;;;;;4914026;29;20085;-82
2021/12/02 03:19:14;;;;;;;6.10;0.75;;;3.20;99.90;;;;;;4928132;29;20114;-83
2021/12/02 03:21:40;;;;;;;4.38;0.80;;;3.20;99.90;;;;;;4898434;29;20131;-82
2021/12/02 03:24:06;;;;;;;4.18;0.47;;;3.10;99.90;;;;;;4928949;29;20198;-82
2021/12/02 03:26:32;;;;;;;6.20;0.82;;;4.10;99.90;;;;;;4945463;28;20054;-82
2021/12/02 03:28:59;;;;;;;4.90;0.40;;;4.10;99.90;;;;;;4933385;29;20044;-82
2021/12/02 03:31:25;;;;;;;4.00;0.40;;;2.90;99.90;;;;;;4917093;29;20082;-82
2021/12/02 03:33:51;;;;;;;1.83;0.30;;;3.70;99.90;;;;;;4900460;29;20086;-82
2021/12/02 03:36:18;;;;;;;3.78;0.50;;;3.70;99.90;;;;;;4917698;29;20052;-82
2021/12/02 03:38:44;;;;;;;2.50;0.28;;;3.50;99.90;;;;;;4933175;29;20043;-82
2021/12/02 03:41:10;;;;;;;2.88;0.30;;;3.10;99.90;;;;;;4917097;29;20400;-82
2021/12/02 03:43:38;;;;;;;3.00;0.40;;;2.80;99.90;;;;;;4917188;29;20047;-82
2021/12/02 03:46:05;;;;;;;3.58;0.70;;;2.40;99.90;;;;;;4916051;29;20526;-82
2021/12/02 03:48:31;;;;;;;3.83;0.40;;;2.40;99.90;;;;;;4916311;29;20058;-82
2021/12/02 03:50:57;;;;;;;2.88;0.30;;;2.30;99.90;;;;;;4918037;29;20043;-82
2021/12/02 03:53:23;;;;;;;1.85;0.38;;;3.30;99.90;;;;;;4916626;29;20055;-82
2021/12/02 03:55:49;;;;;;;3.25;0.47;;;2.30;99.90;;;;;;4917176;29;20055;-82
2021/12/02 03:58:15;;;;;;;3.50;0.38;;;3.20;99.90;;;;;;4917685;29;20554;-82
2021/12/02 04:00:40;;;;;;;3.92;0.28;;;2.30;99.90;;;;;;4916065;29;20567;-83
2021/12/02 04:03:06;;;;;;;1.13;0.20;;;2.30;99.90;;;;;;4916663;29;20051;-82
2021/12/02 04:05:32;;;;;;;7.60;0.65;;;2.20;99.90;;;;;;4933020;29;20492;-82
2021/12/02 04:07:58;;;;;;;3.17;0.70;;;2.20;99.90;;;;;;4916567;29;20492;-82
2021/12/02 04:10:33;;;;;;;3.17;0.90;;;2.10;99.90;;;;;;4917596;29;20052;-82
2021/12/02 04:15:30;;;;;;;3.13;0.60;;;2.70;99.90;;;;;;4932094;29;20058;-82
2021/12/02 04:17:56;;;;;;;2.67;0.40;;;1.90;99.90;;;;;;4936999;29;20047;-82
2021/12/02 04:20:23;;;;;;;3.92;0.63;;;1.80;99.90;;;;;;4931860;29;20054;-83
2021/12/02 04:22:52;;;;;;;4.40;0.30;;;1.80;99.90;;;;;;4915747;29;20065;-82
2021/12/02 04:25:18;;;;;;;2.35;0.50;;;1.70;99.90;;;;;;4916681;29;20836;-82
2021/12/02 04:27:46;;;;;;;1.90;0.43;;;1.70;99.90;;;;;;4932228;29;20139;-82
2021/12/02 04:30:14;;;;;;;3.22;0.60;;;2.90;99.90;;;;;;4916071;29;20046;-83
2021/12/02 04:32:43;;;;;;;7.07;0.70;;;1.90;99.90;;;;;;4932325;29;20138;-82
2021/12/02 04:35:11;;;;;;;3.65;0.70;;;2.00;99.90;;;;;;4915705;29;20399;-82
2021/12/02 04:37:37;;;;;;;1.92;0.60;;;2.10;99.90;;;;;;4931295;29;20051;-83
2021/12/02 04:40:03;;;;;;;4.15;0.80;;;2.80;99.90;;;;;;4932369;29;20496;-83
2021/12/02 04:42:29;;;;;;;7.13;0.77;;;2.30;99.90;;;;;;4914947;29;20181;-82
2021/12/02 04:44:55;;;;;;;5.47;0.68;;;2.30;99.90;;;;;;4931612;29;20052;-81
2021/12/02 04:47:21;;;;;;;6.13;0.68;;;2.30;99.90;;;;;;4916433;29;20047;-82
2021/12/02 04:49:47;;;;;;;6.72;0.73;;;2.30;99.90;;;;;;4930169;29;20475;-82
2021/12/02 04:52:13;;;;;;;4.60;0.40;;;2.20;99.90;;;;;;4931894;29;20090;-83
2021/12/02 04:54:40;;;;;;;4.82;0.50;;;2.10;99.90;;;;;;4916151;29;20082;-84
2021/12/02 04:57:06;;;;;;;6.03;0.55;;;2.80;99.90;;;;;;4910143;29;20546;-84
2021/12/02 04:59:37;;;;;;;3.50;0.60;;;1.90;99.90;;;;;;4931770;29;20083;-84
2021/12/02 05:02:02;;;;;;;7.68;0.50;;;1.80;99.90;;;;;;4947562;29;20044;-85
2021/12/02 05:04:28;;;;;;;4.45;0.40;;;1.80;99.90;;;;;;4930620;29;20056;-85
2021/12/02 05:06:54;;;;;;;5.90;0.50;;;1.70;99.90;;;;;;4932045;29;20487;-85
2021/12/02 05:09:19;;;;;;;5.97;0.70;;;2.90;99.90;;;;;;4931619;29;20488;-85
2021/12/02 05:11:50;;;;;;;3.67;0.73;;;2.90;99.90;;;;;;4931240;29;20040;-86
2021/12/02 05:14:15;;;;;;;4.53;0.50;;;2.30;99.90;;;;;;4931515;29;20060;-85
2021/12/02 05:16:41;;;;;;;4.72;0.50;;;1.70;99.90;;;;;;4932104;29;20504;-85
2021/12/02 05:19:07;;;;;;;5.10;0.52;;;1.60;99.90;;;;;;4930002;29;20142;-85
2021/12/02 05:21:44;;;;;;;4.55;0.40;;;2.00;99.90;;;;;;4915752;29;20048;-86
2021/12/02 05:24:10;;;;;;;3.17;0.57;;;2.60;99.90;;;;;;4932049;29;20115;-86
2021/12/02 05:26:36;;;;;;;7.88;0.70;;;2.20;99.90;;;;;;4914716;29;20071;-85
2021/12/02 05:29:02;;;;;;;3.65;0.65;;;1.90;99.90;;;;;;4931828;29;20382;-85
2021/12/02 05:31:28;;;;;;;8.05;0.52;;;1.70;99.90;;;;;;4931308;29;20051;-84
2021/12/02 05:34:14;;;;;;;6.57;0.50;;;2.30;99.90;;;;;;4932021;29;20043;-84
2021/12/02 05:36:40;;;;;;;1.63;0.30;;;1.70;99.90;;;;;;4925331;29;20139;-84
2021/12/02 05:39:17;;;;;;;2.70;0.40;;;2.80;99.90;;;;;;4929901;29;20087;-84
2021/12/02 05:41:46;;;;;;;4.47;0.40;;;2.60;99.90;;;;;;4938723;29;20478;-84
2021/12/02 05:44:19;;;;;;;2.28;0.45;;;2.50;99.90;;;;;;4931318;29;20563;-84
2021/12/02 05:46:48;;;;;;;3.58;0.50;;;2.10;99.90;;;;;;4946522;29;20058;-84
2021/12/02 05:49:13;;;;;;;3.70;0.90;;;1.70;99.90;;;;;;4929601;29;20412;-84
2021/12/02 05:51:42;;;;;;;1.73;0.40;;;1.80;99.90;;;;;;4947106;29;20048;-84
2021/12/02 05:54:17;;;;;;;1.83;0.30;;;1.70;99.90;;;;;;4931073;29;20051;-84
2021/12/02 05:56:48;;;;;;;1.77;0.40;;;3.00;99.90;;;;;;4930913;29;20047;-84
2021/12/02 05:59:14;;;;;;;4.93;0.73;;;1.70;99.90;;;;;;4946300;29;20082;-83
2021/12/02 06:01:42;;;;;;;5.32;0.90;;;2.50;99.90;;;;;;4930227;29;20052;-84
2021/12/02 06:04:17;;;;;;;10.68;1.20;;;2.60;99.90;;;;;;4929751;29;20055;-83
2021/12/02 06:06:43;;;;;;;6.57;1.00;;;2.50;99.90;;;;;;4945800;29;20047;-83
2021/12/02 06:09:09;;;;;;;5.38;0.95;;;2.50;99.90;;;;;;4930942;29;20074;-84
2021/12/02 06:11:35;;;;;;;3.90;1.08;;;2.80;99.90;;;;;;4946075;29;20388;-83
2021/12/02 06:14:04;;;;;;;6.45;1.20;;;1.60;99.90;;;;;;4928935;29;20055;-83
2021/12/02 06:16:30;;;;;;;5.32;0.90;;;1.60;99.90;;;;;;4945097;29;20083;-83
2021/12/02 06:18:56;;;;;;;7.57;0.82;;;1.60;99.90;;;;;;4929562;29;20058;-83
2021/12/02 06:21:31;;;;;;;2.47;0.80;;;1.20;99.90;;;;;;4913881;29;20056;-83
2021/12/02 06:23:57;;;;;;;5.20;1.00;;;1.60;99.90;;;;;;4913911;29;20051;-83
2021/12/02 06:26:23;;;;;;;4.63;1.10;;;1.70;99.90;;;;;;4914880;29;20044;-84
2021/12/02 06:28:48;;;;;;;8.35;0.95;;;2.40;99.90;;;;;;4929771;29;20048;-84
2021/12/02 06:31:14;;;;;;;5.53;1.48;;;1.60;99.90;;;;;;4930581;29;20051;-84
2021/12/02 06:33:40;;;;;;;7.10;0.98;;;1.50;99.90;;;;;;4929813;29;20071;-84
2021/12/02 06:36:05;;;;;;;4.70;0.93;;;1.60;99.90;;;;;;4929394;29;20082;-84
2021/12/02 06:38:31;;;;;;;5.28;1.00;;;1.60;99.90;;;;;;4929949;29;20044;-84
2021/12/02 06:40:57;;;;;;;2.95;0.90;;;2.70;99.90;;;;;;4914871;29;20048;-84
2021/12/02 06:43:22;;;;;;;2.22;0.80;;;2.40;99.90;;;;;;4929433;29;20099;-84
2021/12/02 06:45:48;;;;;;;3.42;0.88;;;2.40;99.90;;;;;;4914672;29;20047;-84
2021/12/02 06:48:14;;;;;;;4.45;0.70;;;1.50;99.90;;;;;;4913297;29;20047;-84
2021/12/02 06:50:43;;;;;;;5.25;1.45;;;1.60;99.90;;;;;;4913978;29;20131;-84
2021/12/02 06:53:21;;;;;;;3.42;0.73;;;1.40;99.90;;;;;;4914033;29;20085;-84
2021/12/02 06:55:47;;;;;;;4.93;1.23;;;1.60;99.90;;;;;;4914367;29;20058;-84
2021/12/02 06:58:13;;;;;;;6.70;0.85;;;2.50;99.90;;;;;;4913114;29;20051;-84
2021/12/02 07:00:38;;;;;;;2.75;0.80;;;1.40;99.90;;;;;;4915986;29;20106;-84
2021/12/02 07:03:04;;;;;;;7.82;1.10;;;2.70;99.90;;;;;;4916643;29;20059;-84
2021/12/02 07:05:33;;;;;;;4.53;1.15;;;1.80;99.90;;;;;;4917460;29;20434;-84
2021/12/02 07:08:02;;;;;;;6.22;0.88;;;2.20;99.90;;;;;;4927747;29;20052;-84
2021/12/02 07:10:32;;;;;;;4.90;1.10;;;1.20;99.90;;;;;;4917488;29;20352;-84
2021/12/02 07:12:58;;;;;;;4.65;0.80;;;2.40;99.90;;;;;;4933920;29;20503;-84
2021/12/02 07:15:41;;;;;;;7.75;1.25;;;1.00;99.90;;;;;;4917818;29;20047;-84
2021/12/02 07:18:13;;;;;;;5.15;1.15;;;1.10;99.90;;;;;;4941807;29;20133;-84
2021/12/02 07:23:31;;;;;;;6.40;1.10;;;0.50;99.90;;;;;;4952321;29;20089;-84
2021/12/02 07:26:08;;;;;;;10.88;1.20;;;0.50;99.90;;;;;;4935780;29;20120;-84
2021/12/02 07:28:35;;;;;;;5.38;0.95;;;2.10;99.90;;;;;;4936336;29;20055;-84
2021/12/02 07:31:03;;;;;;;4.75;1.40;;;2.10;99.90;;;;;;4936249;29;20110;-83
2021/12/02 07:33:29;;;;;;;4.03;0.95;;;0.90;99.90;;;;;;4935912;29;20078;-84
2021/12/02 07:35:55;;;;;;;8.85;1.65;;;1.50;99.90;;;;;;4936522;29;20095;-83
2021/12/02 07:38:22;;;;;;;5.53;1.40;;;0.80;99.90;;;;;;4951832;29;20042;-84
2021/12/02 07:40:48;;;;;;;3.53;1.00;;;0.80;99.90;;;;;;4941729;28;20047;-85
2021/12/02 07:43:13;;;;;;;4.28;1.15;;;0.80;99.90;;;;;;4943654;28;20043;-85
2021/12/02 07:45:39;;;;;;;7.65;1.70;;;0.70;99.90;;;;;;4945110;28;20039;-84
2021/12/02 07:48:06;;;;;;;6.55;1.55;;;2.00;99.90;;;;;;4945218;28;20503;-84
2021/12/02 07:50:34;;;;;;;4.20;1.48;;;0.80;99.90;;;;;;4958581;28;20042;-84
2021/12/02 07:53:02;;;;;;;4.68;1.27;;;1.20;99.90;;;;;;4951061;29;20074;-84
2021/12/02 07:55:29;;;;;;;3.33;1.08;;;0.60;99.90;;;;;;4934947;29;20039;-83
2021/12/02 07:58:05;;;;;;;4.90;1.10;;;0.60;99.90;;;;;;4934611;29;20510;-84
2021/12/02 08:00:31;;;;;;;4.88;1.00;;;0.60;99.90;;;;;;4915964;29;20428;-84
2021/12/02 08:02:57;;;;;;;5.45;0.95;;;0.60;99.90;;;;;;4944116;29;20043;-83
2021/12/02 08:05:24;;;;;;;6.75;0.98;;;0.70;99.90;;;;;;4935109;29;20050;-84
2021/12/02 08:07:57;;;;;;;8.40;1.38;;;0.60;99.90;;;;;;4935018;29;20040;-84
2021/12/02 08:10:23;;;;;;;3.53;1.27;;;0.80;99.90;;;;;;4935527;29;20074;-84
2021/12/02 08:12:50;;;;;;;7.15;1.60;;;0.90;99.90;;;;;;4935104;29;20051;-84
2021/12/02 08:15:25;;;;;;;6.53;1.40;;;1.60;99.90;;;;;;4934423;29;20524;-84
2021/12/02 08:17:53;;;;;;;6.95;1.38;;;1.50;99.90;;;;;;4934920;29;20050;-83
2021/12/02 08:20:26;;;;;;;7.57;1.67;;;1.70;99.90;;;;;;4949648;29;20407;-85
2021/12/02 08:22:52;;;;;;;6.07;1.67;;;1.20;99.90;;;;;;4950774;29;20045;-86
2021/12/02 08:25:20;;;;;;;7.80;1.80;;;1.30;99.90;;;;;;4935719;29;20039;-86
2021/12/02 08:28:00;;;;;;;7.10;1.75;;;1.40;99.90;;;;;;4934441;29;20043;-85
2021/12/02 08:30:28;;;;;;;4.20;2.10;;;1.50;99.90;;;;;;4935020;29;20035;-85
2021/12/02 08:32:55;;;;;;;8.15;2.40;;;1.60;99.90;;;;;;4935364;29;20578;-84
2021/12/02 08:35:23;;;;;;;11.05;3.50;;;3.00;99.90;;;;;;4931859;29;20039;-84
2021/12/02 08:37:56;;;;;;;6.03;3.10;;;1.90;99.90;;;;;;4935147;29;20047;-85
2021/12/02 08:40:31;;;;;;;10.23;4.28;;;2.00;99.90;;;;;;4931927;29;20035;-85
2021/12/02 08:43:00;;;;;;;8.15;3.55;;;2.70;99.90;;;;;;4946107;29;20051;-85
2021/12/02 08:45:27;;;;;;;7.40;4.25;;;2.20;99.90;;;;;;4949894;29;20066;-85
2021/12/02 08:47:54;;;;;;;10.55;3.60;;;2.80;99.90;;;;;;4948111;29;20102;-85
2021/12/02 08:50:27;;;;;;;7.80;4.30;;;3.40;99.90;;;;;;4933341;29;20474;-85
2021/12/02 08:52:54;;;;;;;10.15;4.60;;;2.40;99.90;;;;;;4951728;29;20047;-87
2021/12/02 08:55:22;;;;;;;9.55;5.07;;;2.50;99.90;;;;;;4934210;29;20126;-85
2021/12/02 08:57:48;;;;;;;7.00;4.35;;;2.70;99.90;;;;;;4950089;29;20157;-85
2021/12/02 09:00:17;;;;;;;9.90;4.53;;;2.60;99.90;;;;;;4939512;28;20042;-85
2021/12/02 09:02:43;;;;;;;11.02;4.60;;;2.60;99.90;;;;;;4959795;28;20061;-85
2021/12/02 09:05:19;;;;;;;8.85;3.97;;;2.60;99.90;;;;;;4960464;28;20039;-86
2021/12/02 09:07:45;;;;;;;11.52;3.90;;;3.50;99.90;;;;;;4937894;29;20051;-86
2021/12/02 09:10:11;;;;;;;7.82;3.90;;;2.70;99.90;;;;;;4933670;29;20067;-86
2021/12/02 09:12:48;;;;;;;10.73;3.90;;;3.60;99.90;;;;;;4952012;28;20077;-86
2021/12/02 09:15:14;;;;;;;7.70;3.75;;;3.80;99.90;;;;;;4950930;29;20554;-86
2021/12/02 09:17:40;;;;;;;6.90;3.20;;;2.80;99.90;;;;;;4950469;29;20496;-86
2021/12/02 09:20:16;;;;;;;8.73;3.67;;;2.80;99.90;;;;;;4933588;29;20146;-87
2021/12/02 09:22:43;;;;;;;6.68;3.10;;;3.20;99.90;;;;;;4933710;29;20055;-87
2021/12/02 09:25:10;;;;;;;9.90;3.30;;;3.50;99.90;;;;;;4950021;28;20062;-86
2021/12/02 09:27:43;;;;;;;6.97;2.35;;;2.90;99.90;;;;;;4935015;29;20050;-86
2021/12/02 09:30:09;;;;;;;9.85;2.25;;;2.90;99.90;;;;;;4947343;29;20052;-87
2021/12/02 09:32:36;;;;;;;7.55;2.20;;;2.90;99.90;;;;;;4914349;29;20932;-86
2021/12/02 09:35:03;;;;;;;12.07;3.00;;;3.10;99.90;;;;;;4931241;29;20105;-87
2021/12/02 09:37:41;;;;;;;6.93;2.08;;;3.10;99.90;;;;;;4930719;29;20039;-87
2021/12/02 09:40:09;;;;;;;7.68;2.10;;;4.30;99.90;;;;;;4931782;29;20142;-87
2021/12/02 09:42:35;;;;;;;3.97;1.73;;;3.10;99.90;;;;;;4915664;29;20055;-87
2021/12/02 09:45:02;;;;;;;5.10;1.90;;;4.20;99.90;;;;;;4931304;29;20099;-87
2021/12/02 09:47:31;;;;;;;6.35;2.20;;;3.00;99.90;;;;;;4915830;29;20126;-87
2021/12/02 09:50:02;;;;;;;9.30;1.90;;;2.90;99.90;;;;;;4915479;29;20138;-87
2021/12/02 09:52:39;;;;;;;5.10;1.42;;;2.90;99.90;;;;;;4914448;29;20131;-87
2021/12/02 09:55:17;;;;;;;5.15;0.60;;;3.90;99.90;;;;;;4930746;29;20099;-88
2021/12/02 09:57:57;;;;;;;4.05;0.57;;;2.70;99.90;;;;;;4916327;29;20042;-88
2021/12/02 10:00:39;;;;;;;2.30;0.43;;;2.30;99.90;;;;;;4915307;29;20130;-88
2021/12/02 10:03:29;;;;;;;1.75;0.40;;;2.00;99.90;;;;;;4930198;29;20568;-88
2021/12/02 10:06:07;;;;;;;1.55;0.30;;;1.70;99.90;;;;;;4915793;29;20039;-88
2021/12/02 10:08:47;;;;;;;3.78;0.38;;;1.60;99.90;;;;;;4915372;29;20055;-88
2021/12/02 10:11:36;;;;;;;1.15;0.28;;;1.50;99.90;;;;;;4916305;29;20047;-88
2021/12/02 10:14:20;;;;;;;1.33;0.30;;;1.50;99.90;;;;;;4915200;29;20134;-89
2021/12/02 10:16:48;;;;;;;2.55;0.50;;;1.50;99.90;;;;;;4915330;29;20044;-89
2021/12/02 10:19:30;;;;;;;3.10;0.60;;;1.40;99.90;;;;;;4930992;29;20043;-88
2021/12/02 10:22:06;;;;;;;1.60;0.40;;;1.60;99.90;;;;;;4902109;29;20066;-88
2021/12/02 10:24:44;;;;;;;1.95;0.28;;;1.90;99.90;;;;;;4915888;29;20053;-88
2021/12/02 10:27:11;;;;;;;1.20;0.40;;;1.70;99.90;;;;;;4913903;29;20051;-88
2021/12/02 10:29:38;;;;;;;3.00;0.50;;;2.30;99.90;;;;;;4932026;29;20411;-89
2021/12/02 10:32:09;;;;;;;3.08;0.43;;;1.90;99.90;;;;;;4932538;29;20051;-88
2021/12/02 10:35:06;;;;;;;1.75;0.50;;;1.90;99.90;;;;;;4915464;29;20082;-88
2021/12/02 10:37:35;;;;;;;0.52;0.30;;;2.00;99.90;;;;;;4915490;29;20043;-89
2021/12/02 10:40:03;;;;;;;2.15;0.40;;;1.60;99.90;;;;;;4916183;29;20048;-88
2021/12/02 10:43:37;;;;;;;1.35;0.30;;;2.10;99.90;;;;;;4914165;29;20123;-88
2021/12/02 10:46:15;;;;;;;0.75;0.30;;;2.60;99.90;;;;;;4927688;29;20055;-88
2021/12/02 10:48:44;;;;;;;3.10;0.30;;;3.30;99.90;;;;;;4913755;29;20044;-88
2021/12/02 10:51:36;;;;;;;3.70;0.47;;;1.70;99.90;;;;;;4915551;29;20054;-89
2021/12/02 10:54:19;;;;;;;2.30;0.43;;;2.00;99.90;;;;;;4931580;29;20555;-89
2021/12/02 10:56:56;;;;;;;1.70;0.40;;;1.90;99.90;;;;;;4930674;29;20492;-88
2021/12/02 10:59:24;;;;;;;3.30;0.45;;;2.20;99.90;;;;;;4915570;29;20051;-88
2021/12/02 11:01:51;;;;;;;1.83;0.55;;;3.10;99.90;;;;;;4914781;29;20126;-88
2021/12/02 11:04:17;;;;;;;3.85;0.60;;;1.70;99.90;;;;;;4930083;29;20055;-88
2021/12/02 11:06:55;;;;;;;1.63;0.40;;;1.70;99.90;;;;;;4930798;29;20377;-88
2021/12/02 11:09:28;;;;;;;1.50;0.40;;;3.00;99.90;;;;;;4931104;29;20661;-88
2021/12/02 11:12:07;;;;;;;1.60;0.30;;;1.70;99.90;;;;;;4915274;29;20043;-89
2021/12/02 11:14:34;;;;;;;3.00;0.40;;;1.00;99.90;;;;;;4914754;29;20138;-88
2021/12/02 11:17:19;;;;;;;;;;;;;;;;;;;;;
2021/12/02 11:19:50;;;;;;;3.35;0.60;;;1.60;99.90;;;;;;4929612;29;20055;-88
2021/12/02 11:22:20;;;;;;;3.40;0.70;;;1.40;99.90;;;;;;4930810;29;20492;-88
2021/12/02 11:24:48;;;;;;;2.15;0.52;;;2.30;99.90;;;;;;4913551;29;20055;-88
2021/12/02 11:27:23;;;;;;;2.67;0.60;;;2.50;99.90;;;;;;4931128;29;20047;-88
2021/12/02 11:29:54;;;;;;;2.53;0.57;;;1.90;99.90;;;;;;4914944;29;20484;-88
2021/12/02 11:32:38;;;;;;;2.45;0.50;;;2.10;99.90;;;;;;4913908;29;20047;-87
2021/12/02 11:35:19;;;;;;;1.88;0.45;;;2.10;99.90;;;;;;4913930;29;20062;-87
2021/12/02 11:37:50;;;;;;;1.45;0.40;;;3.10;99.90;;;;;;4913682;29;20636;-87
2021/12/02 11:40:28;;;;;;;1.50;0.40;;;2.90;99.90;;;;;;4929956;29;20377;-87
2021/12/02 11:42:55;;;;;;;1.58;0.40;;;2.20;99.90;;;;;;4930485;29;20139;-87
2021/12/02 11:45:23;;;;;;;0.90;0.20;;;2.20;99.90;;;;;;4916808;29;20083;-87
2021/12/02 11:47:51;;;;;;;1.45;0.30;;;2.60;99.90;;;;;;4934704;29;20079;-87
2021/12/02 11:50:24;;;;;;;1.13;0.30;;;2.80;99.90;;;;;;4936179;29;20566;-87
2021/12/02 11:52:50;;;;;;;1.95;0.43;;;3.50;99.90;;;;;;4952308;29;20055;-87
2021/12/02 11:55:20;;;;;;;4.78;0.80;;;1.40;99.90;;;;;;4951679;29;20047;-87
2021/12/02 11:57:48;;;;;;;2.13;0.50;;;2.10;99.90;;;;;;4936823;29;20113;-87
2021/12/02 12:00:17;;;;;;;2.10;0.60;;;2.60;99.90;;;;;;4936032;29;20047;-87
2021/12/02 12:02:53;;;;;;;2.22;0.70;;;2.10;99.90;;;;;;4952518;29;20055;-87
2021/12/02 12:05:31;;;;;;;2.28;0.80;;;2.10;99.90;;;;;;4934899;29;20126;-87
2021/12/02 12:07:57;;;;;;;6.38;0.80;;;2.20;99.90;;;;;;4933562;29;20058;-87
2021/12/02 12:10:27;;;;;;;2.53;0.70;;;2.20;99.90;;;;;;4952550;29;20130;-87
2021/12/02 12:13:11;;;;;;;3.72;0.60;;;2.10;99.90;;;;;;4935950;29;20066;-87
2021/12/02 12:15:42;;;;;;;1.60;0.47;;;2.20;99.90;;;;;;4935722;29;20044;-86
2021/12/02 12:18:09;;;;;;;1.52;0.50;;;3.10;99.90;;;;;;4935701;29;20043;-87
2021/12/02 12:20:52;;;;;;;2.20;0.40;;;2.30;99.90;;;;;;4931198;29;20063;-87
2021/12/02 12:23:45;;;;;;;1.65;0.40;;;2.30;99.90;;;;;;4916661;29;20134;-90
2021/12/02 12:26:12;;;;;;;1.33;0.30;;;1.80;99.90;;;;;;4934809;29;20102;-89
2021/12/02 12:29:08;;;;;;;0.93;0.38;;;2.90;99.90;;;;;;4935877;29;20137;-90
2021/12/02 12:31:52;;;;;;;0.90;0.30;;;2.20;99.90;;;;;;4936764;29;20059;-90
2021/12/02 12:34:29;;;;;;;0.47;0.22;;;2.10;99.90;;;;;;4936259;29;20102;-90
2021/12/02 12:36:57;;;;;;;0.30;0.20;;;2.40;99.90;;;;;;4937206;29;20535;-89
2021/12/02 12:39:25;;;;;;;0.52;0.30;;;2.10;99.90;;;;;;4936000;29;20495;-89
2021/12/02 12:42:11;;;;;;;0.90;0.47;;;3.30;99.90;;;;;;4935952;29;20058;-89
2021/12/02 12:44:58;;;;;;;1.48;0.50;;;3.20;99.90;;;;;;4936749;29;20415;-89
2021/12/02 12:47:41;;;;;;;1.25;0.40;;;3.00;99.90;;;;;;4936657;29;20055;-88
2021/12/02 12:50:33;;;;;;;2.47;0.70;;;1.90;99.90;;;;;;4936259;29;20392;-89
2021/12/02 12:53:13;;;;;;;1.10;0.68;;;1.90;99.90;;;;;;4936052;29;20040;-89
2021/12/02 12:55:52;;;;;;;4.28;0.50;;;2.10;99.90;;;;;;4936638;29;20063;-88
2021/12/02 12:58:38;;;;;;;1.95;0.50;;;2.10;99.90;;;;;;4916720;29;20052;-88
2021/12/02 13:01:19;;;;;;;1.77;0.80;;;2.00;99.90;;;;;;4923091;28;20167;-89
2021/12/02 13:04:10;;;;;;;1.48;0.50;;;2.00;99.90;;;;;;4936976;29;20055;-89
2021/12/02 13:07:07;;;;;;;3.35;1.27;;;2.10;99.90;;;;;;4936553;29;20057;-88
2021/12/02 13:09:37;;;;;;;1.90;0.70;;;2.10;99.90;;;;;;4934731;29;20062;-89
2021/12/02 13:12:04;;;;;;;2.00;0.50;;;2.70;99.90;;;;;;4968398;23;20165;-88
2021/12/02 13:14:55;;;;;;;1.27;0.43;;;2.30;99.90;;;;;;4971578;28;20090;-88
2021/12/02 13:17:36;;;;;;;1.95;0.55;;;3.40;99.90;;;;;;4969873;28;20051;-88
2021/12/02 13:20:15;;;;;;;2.08;0.57;;;2.40;99.90;;;;;;4954053;28;20198;-88
2021/12/02 13:22:40;;;;;;;1.20;0.40;;;2.60;99.90;;;;;;4954235;28;20058;-87
2021/12/02 13:25:27;;;;;;;1.25;0.40;;;2.60;99.90;;;;;;4970508;28;20050;-88
2021/12/02 13:27:53;;;;;;;0.65;0.20;;;2.80;99.90;;;;;;4963511;23;20062;-88
2021/12/02 13:30:22;;;;;;;1.02;0.22;;;2.90;99.90;;;;;;4950669;29;20051;-88
2021/12/02 13:32:49;;;;;;;2.05;0.30;;;4.20;99.90;;;;;;4951492;29;20215;-88